createdAt,value
2022-08-17T00:01:26.205Z,28.34
2022-08-17T00:03:54.762Z,28.30
2022-08-17T00:06:24.922Z,28.26
2022-08-17T00:09:00.585Z,28.20
2022-08-17T00:11:30.983Z,28.20
2022-08-17T00:14:05.129Z,28.15
2022-08-17T00:16:56.291Z,28.13
2022-08-17T00:19:24.446Z,28.12
2022-08-17T00:22:32.676Z,28.09
2022-08-17T00:24:39.922Z,28.08
2022-08-17T00:27:06.407Z,28.06
2022-08-17T00:29:32.945Z,28.02
2022-08-17T00:32:01.187Z,28.00
2022-08-17T00:34:47.569Z,28.00
2022-08-17T00:37:14.069Z,28.03
2022-08-17T00:39:40.865Z,27.99
2022-08-17T00:42:18.867Z,27.92
2022-08-17T00:44:46.172Z,27.93
2022-08-17T00:47:13.277Z,27.91
2022-08-17T00:49:39.999Z,27.88
2022-08-17T00:52:15.648Z,27.83
2022-08-17T00:54:46.987Z,27.80
2022-08-17T00:57:23.399Z,27.76
2022-08-17T01:00:02.476Z,27.75
2022-08-17T01:02:40.470Z,27.71
2022-08-17T01:05:15.314Z,27.69
2022-08-17T01:07:42.984Z,27.67
2022-08-17T01:10:59.175Z,27.64
2022-08-17T01:13:02.413Z,27.62
2022-08-17T01:15:36.012Z,27.58
2022-08-17T01:18:05.361Z,27.59
2022-08-17T01:20:32.543Z,27.56
2022-08-17T01:23:20.770Z,27.55
2022-08-17T01:25:56.651Z,27.50
2022-08-17T01:28:52.438Z,27.51
2022-08-17T01:31:12.941Z,27.50
2022-08-17T01:33:39.520Z,27.49
2022-08-17T01:36:07.476Z,27.49
2022-08-17T01:38:35.565Z,27.49
2022-08-17T01:41:08.004Z,27.48
2022-08-17T01:43:45.209Z,27.47
2022-08-17T01:46:16.031Z,27.47
2022-08-17T01:48:43.633Z,27.47
2022-08-17T01:51:10.291Z,27.46
2022-08-17T01:53:41.252Z,27.43
2022-08-17T01:56:13.827Z,27.40
2022-08-17T01:58:42.087Z,27.41
2022-08-17T02:01:10.105Z,27.39
2022-08-17T02:03:38.044Z,27.37
2022-08-17T02:06:06.096Z,27.33
2022-08-17T02:09:01.932Z,27.29
2022-08-17T02:11:32.296Z,27.25
2022-08-17T02:14:03.256Z,27.20
2022-08-17T02:16:36.678Z,27.15
2022-08-17T02:19:07.279Z,27.12
2022-08-17T02:21:34.222Z,27.07
2022-08-17T02:24:00.845Z,27.04
2022-08-17T02:26:27.408Z,26.98
2022-08-17T02:28:54.322Z,26.94
2022-08-17T02:31:21.344Z,26.89
2022-08-17T02:33:56.789Z,26.84
2022-08-17T02:36:31.351Z,26.82
2022-08-17T02:38:58.608Z,26.77
2022-08-17T02:41:25.300Z,26.75
2022-08-17T02:43:53.147Z,26.74
2022-08-17T02:46:19.704Z,26.73
2022-08-17T02:48:46.371Z,26.72
2022-08-17T02:51:12.876Z,26.71
2022-08-17T02:53:39.391Z,26.71
2022-08-17T02:56:06.108Z,26.69
2022-08-17T02:58:35.579Z,26.68
2022-08-17T03:01:05.881Z,26.67
2022-08-17T03:03:32.639Z,26.67
2022-08-17T03:05:59.195Z,26.63
2022-08-17T03:08:25.841Z,26.61
2022-08-17T03:10:52.366Z,26.59
2022-08-17T03:13:19.035Z,26.57
2022-08-17T03:15:46.427Z,26.54
2022-08-17T03:18:24.076Z,26.51
2022-08-17T03:20:52.295Z,26.52
2022-08-17T03:23:18.807Z,26.50
2022-08-17T03:25:52.864Z,26.49
2022-08-17T03:28:20.454Z,26.47
2022-08-17T03:30:47.000Z,26.46
2022-08-17T03:33:13.762Z,26.44
2022-08-17T03:35:41.072Z,26.42
2022-08-17T03:38:10.339Z,26.38
2022-08-17T03:40:58.204Z,26.37
2022-08-17T03:43:23.613Z,26.37
2022-08-17T03:46:28.979Z,26.36
2022-08-17T03:49:14.591Z,26.36
2022-08-17T03:51:59.906Z,26.35
2022-08-17T03:54:44.661Z,26.34
2022-08-17T03:57:12.260Z,26.34
2022-08-17T03:59:39.460Z,26.34
2022-08-17T04:02:19.081Z,26.29
2022-08-17T04:04:45.683Z,26.33
2022-08-17T04:07:12.334Z,26.32
2022-08-17T04:09:38.819Z,26.33
2022-08-17T04:12:05.778Z,26.32
2022-08-17T04:14:39.280Z,26.33
2022-08-17T04:17:21.056Z,26.35
2022-08-17T04:19:47.555Z,26.35
2022-08-17T04:22:32.945Z,26.35
2022-08-17T04:25:06.631Z,26.33
2022-08-17T04:27:33.429Z,26.37
2022-08-17T04:30:00.327Z,26.36
2022-08-17T04:33:04.017Z,26.36
2022-08-17T04:35:18.741Z,26.36
2022-08-17T04:37:45.569Z,26.39
2022-08-17T04:40:30.709Z,26.39
2022-08-17T04:43:10.739Z,26.37
2022-08-17T04:45:57.303Z,26.37
2022-08-17T04:48:35.486Z,26.40
2022-08-17T04:51:09.794Z,26.40
2022-08-17T04:53:37.750Z,26.42
2022-08-17T04:56:05.274Z,26.42
2022-08-17T04:58:33.194Z,26.43
2022-08-17T05:00:59.944Z,26.44
2022-08-17T05:03:26.574Z,26.45
2022-08-17T05:05:53.706Z,26.47
2022-08-17T05:08:21.575Z,26.50
2022-08-17T05:10:49.087Z,26.51
2022-08-17T05:13:27.963Z,26.52
2022-08-17T05:15:59.690Z,26.55
2022-08-17T05:18:27.256Z,26.57
2022-08-17T05:20:53.958Z,26.61
2022-08-17T05:23:22.100Z,26.62
2022-08-17T05:25:52.071Z,26.65
2022-08-17T05:28:24.164Z,26.69
2022-08-17T05:30:56.717Z,26.74
2022-08-17T05:33:26.375Z,26.78
2022-08-17T05:35:54.840Z,26.82
2022-08-17T05:38:22.596Z,26.88
2022-08-17T05:40:49.836Z,26.97
2022-08-17T05:43:38.276Z,26.97
2022-08-17T05:46:16.144Z,27.01
2022-08-17T05:48:46.014Z,27.08
2022-08-17T05:51:27.529Z,27.07
2022-08-17T05:54:31.775Z,27.11
2022-08-17T05:57:10.284Z,27.17
2022-08-17T05:59:48.899Z,27.20
2022-08-17T06:02:48.295Z,27.24
2022-08-17T06:05:23.464Z,27.30
2022-08-17T06:08:00.007Z,27.35
2022-08-17T06:10:37.861Z,27.37
2022-08-17T06:13:23.125Z,27.46
2022-08-17T06:16:33.521Z,27.49
2022-08-17T06:19:15.987Z,27.59
2022-08-17T06:21:45.304Z,27.72
2022-08-17T06:24:53.186Z,27.82
2022-08-17T06:27:35.678Z,27.93
2022-08-17T06:30:11.511Z,28.02
2022-08-17T06:32:41.284Z,28.10
2022-08-17T06:35:10.473Z,28.16
2022-08-17T06:37:50.544Z,28.20
2022-08-17T06:40:38.259Z,28.28
2022-08-17T06:43:22.995Z,28.36
2022-08-17T06:46:13.457Z,28.41
2022-08-17T06:49:00.916Z,28.48
2022-08-17T06:51:36.325Z,28.58
2022-08-17T06:54:11.201Z,28.64
2022-08-17T06:56:59.559Z,28.70
2022-08-17T06:59:55.030Z,28.79
2022-08-17T07:02:51.056Z,28.89
2022-08-17T07:05:32.195Z,29.03
2022-08-17T07:08:09.222Z,29.08
2022-08-17T07:10:46.156Z,29.18
2022-08-17T07:13:31.300Z,29.24
2022-08-17T07:16:07.573Z,29.34
2022-08-17T07:18:34.204Z,29.43
2022-08-17T07:21:26.173Z,29.48
2022-08-17T07:24:30.666Z,29.55
2022-08-17T07:27:20.847Z,29.62
2022-08-17T07:29:56.601Z,29.68
2022-08-17T07:32:27.528Z,29.74
2022-08-17T07:35:11.610Z,29.76
2022-08-17T07:37:53.140Z,29.79
2022-08-17T07:40:33.428Z,29.83
2022-08-17T07:43:03.299Z,29.86
2022-08-17T07:45:52.122Z,29.91
2022-08-17T07:48:25.853Z,29.94
2022-08-17T07:50:53.290Z,30.03
2022-08-17T07:53:25.269Z,30.10
2022-08-17T07:55:53.567Z,30.26
2022-08-17T07:58:23.436Z,30.43
2022-08-17T08:01:18.292Z,30.63
2022-08-17T08:03:46.219Z,30.86
2022-08-17T08:06:24.696Z,31.01
2022-08-17T08:08:54.910Z,31.14
2022-08-17T08:11:30.537Z,31.24
2022-08-17T08:14:20.546Z,31.47
2022-08-17T08:17:22.429Z,31.89
2022-08-17T08:19:48.924Z,32.41
2022-08-17T08:22:26.257Z,32.85
2022-08-17T08:25:07.266Z,33.28
2022-08-17T08:27:45.868Z,33.59
2022-08-17T08:30:19.164Z,33.74
2022-08-17T08:33:17.231Z,33.82
2022-08-17T08:35:55.332Z,33.91
2022-08-17T08:38:42.597Z,34.02
2022-08-17T08:41:40.765Z,34.14
2022-08-17T08:44:59.926Z,34.24
2022-08-17T08:47:46.833Z,34.37
2022-08-17T08:50:37.446Z,34.59
2022-08-17T08:53:11.731Z,34.75
2022-08-17T08:56:05.868Z,34.90
2022-08-17T08:58:48.322Z,35.08
2022-08-17T09:01:42.136Z,35.26
2022-08-17T09:04:26.269Z,35.46
2022-08-17T09:07:24.199Z,35.64
2022-08-17T09:10:15.219Z,35.79
2022-08-17T09:12:58.910Z,35.89
2022-08-17T09:15:44.810Z,35.88
2022-08-17T09:19:01.184Z,35.87
2022-08-17T09:21:18.388Z,35.84
2022-08-17T09:24:00.163Z,35.78
2022-08-17T09:27:02.686Z,35.68
2022-08-17T09:29:36.749Z,35.64
2022-08-17T09:32:41.166Z,35.56
2022-08-17T09:35:44.284Z,35.48
2022-08-17T09:38:33.360Z,35.45
2022-08-17T09:41:08.613Z,35.37
2022-08-17T09:44:23.425Z,35.26
2022-08-17T09:46:53.044Z,35.15
2022-08-17T09:49:30.895Z,35.00
2022-08-17T09:52:08.502Z,34.91
2022-08-17T09:54:40.879Z,34.77
2022-08-17T09:57:37.851Z,34.62
2022-08-17T10:00:11.920Z,34.54
2022-08-17T10:02:54.477Z,34.39
2022-08-17T10:05:23.264Z,34.32
2022-08-17T10:08:09.539Z,34.19
2022-08-17T10:11:05.729Z,34.11
2022-08-17T10:13:41.502Z,34.07
2022-08-17T10:16:26.121Z,34.01
2022-08-17T10:19:10.279Z,33.96
2022-08-17T10:22:01.035Z,33.95
2022-08-17T10:25:23.263Z,33.93
2022-08-17T10:28:01.667Z,33.90
2022-08-17T10:30:33.093Z,33.91
2022-08-17T10:33:15.412Z,33.87
2022-08-17T10:35:57.239Z,33.83
2022-08-17T10:38:39.315Z,33.79
2022-08-17T10:41:43.701Z,33.73
2022-08-17T10:44:38.902Z,33.69
2022-08-17T10:47:16.549Z,33.67
2022-08-17T10:49:53.631Z,33.62
2022-08-17T10:52:20.137Z,33.60
2022-08-17T10:54:58.497Z,33.52
2022-08-17T10:57:34.149Z,33.48
2022-08-17T11:00:15.474Z,33.45
2022-08-17T11:02:48.785Z,33.45
2022-08-17T11:05:50.278Z,33.40
2022-08-17T11:08:57.451Z,33.39
2022-08-17T11:12:00.992Z,33.39
2022-08-17T11:14:50.727Z,33.36
2022-08-17T11:17:43.107Z,33.33
2022-08-17T11:20:47.157Z,33.29
2022-08-17T11:23:16.961Z,33.28
2022-08-17T11:25:50.825Z,33.21
2022-08-17T11:28:23.854Z,33.17
2022-08-17T11:31:01.358Z,33.09
2022-08-17T11:33:36.754Z,33.05
2022-08-17T11:36:23.389Z,32.98
2022-08-17T11:39:27.470Z,32.92
2022-08-17T11:41:54.508Z,32.92
2022-08-17T11:44:29.907Z,32.86
2022-08-17T11:47:29.846Z,32.78
2022-08-17T11:50:44.226Z,32.76
2022-08-17T11:53:50.025Z,32.72
2022-08-17T11:56:41.084Z,32.69
2022-08-17T11:59:32.692Z,32.64
2022-08-17T12:02:34.951Z,32.60
2022-08-17T12:05:26.016Z,32.60
2022-08-17T12:07:56.088Z,32.57
2022-08-17T12:10:31.814Z,32.56
2022-08-17T12:13:12.752Z,32.52
2022-08-17T12:15:49.719Z,32.51
2022-08-17T12:18:24.525Z,32.48
2022-08-17T12:21:18.264Z,32.47
2022-08-17T12:23:56.200Z,32.52
2022-08-17T12:26:30.222Z,32.55
2022-08-17T12:29:02.603Z,32.57
2022-08-17T12:31:36.794Z,32.61
2022-08-17T12:34:04.953Z,32.67
2022-08-17T12:36:33.257Z,32.72
2022-08-17T12:39:13.000Z,32.81
2022-08-17T12:41:45.066Z,32.88
2022-08-17T12:44:12.170Z,32.90
2022-08-17T12:46:51.414Z,32.87
2022-08-17T12:49:26.432Z,32.89
2022-08-17T12:52:07.078Z,32.90
2022-08-17T12:54:50.279Z,32.97
2022-08-17T12:57:42.183Z,33.04
2022-08-17T13:00:17.602Z,33.10
2022-08-17T13:02:48.709Z,33.16
2022-08-17T13:05:27.604Z,33.19
2022-08-17T13:07:57.250Z,33.25
2022-08-17T13:10:32.222Z,33.33
2022-08-17T13:13:04.849Z,33.41
2022-08-17T13:15:44.630Z,33.47
2022-08-17T13:18:39.184Z,33.59
2022-08-17T13:21:23.669Z,33.72
2022-08-17T13:24:07.823Z,33.82
2022-08-17T13:26:36.556Z,33.90
2022-08-17T13:29:25.768Z,33.90
2022-08-17T13:32:15.993Z,33.94
2022-08-17T13:34:59.593Z,34.00
2022-08-17T13:37:36.531Z,34.01
2022-08-17T13:40:09.125Z,34.00
2022-08-17T13:42:52.952Z,34.01
2022-08-17T13:45:35.651Z,34.00
2022-08-17T13:48:29.265Z,33.98
2022-08-17T13:50:55.674Z,34.03
2022-08-17T13:53:37.443Z,34.00
2022-08-17T13:56:43.799Z,34.01
2022-08-17T13:59:52.806Z,34.06
2022-08-17T14:02:15.584Z,34.10
2022-08-17T14:04:45.343Z,34.09
2022-08-17T14:07:12.841Z,34.11
2022-08-17T14:09:58.142Z,34.15
2022-08-17T14:12:27.278Z,34.19
2022-08-17T14:14:56.328Z,34.22
2022-08-17T14:17:24.104Z,34.23
2022-08-17T14:19:51.582Z,34.26
2022-08-17T14:22:40.155Z,34.26
2022-08-17T14:25:10.416Z,34.33
2022-08-17T14:27:51.776Z,34.32
2022-08-17T14:30:22.467Z,34.27
2022-08-17T14:32:51.701Z,34.23
2022-08-17T14:35:19.440Z,34.17
2022-08-17T14:37:45.993Z,34.09
2022-08-17T14:40:15.339Z,34.00
2022-08-17T14:42:46.041Z,33.92
2022-08-17T14:45:31.813Z,33.85
2022-08-17T14:48:04.792Z,33.78
2022-08-17T14:50:32.191Z,33.70
2022-08-17T14:53:03.867Z,33.64
2022-08-17T14:55:31.153Z,33.57
2022-08-17T14:57:57.686Z,33.53
2022-08-17T15:00:24.411Z,33.48
2022-08-17T15:02:54.575Z,33.41
2022-08-17T15:05:26.683Z,33.37
2022-08-17T15:07:53.663Z,33.37
2022-08-17T15:10:20.570Z,33.33
2022-08-17T15:12:47.472Z,33.31
2022-08-17T15:15:15.540Z,33.28
2022-08-17T15:17:44.240Z,33.24
2022-08-17T15:20:17.662Z,33.20
2022-08-17T15:22:45.717Z,33.20
2022-08-17T15:25:13.084Z,33.19
2022-08-17T15:27:40.377Z,33.19
2022-08-17T15:30:08.496Z,33.20
2022-08-17T15:32:38.265Z,33.20
2022-08-17T15:35:06.580Z,33.20
2022-08-17T15:37:33.427Z,33.23
2022-08-17T15:40:03.737Z,33.30
2022-08-17T15:42:30.410Z,33.31
2022-08-17T15:44:57.465Z,33.31
2022-08-17T15:47:24.733Z,33.31
2022-08-17T15:49:55.418Z,33.35
2022-08-17T15:52:26.467Z,33.37
2022-08-17T15:54:56.158Z,33.42
2022-08-17T15:57:24.547Z,33.46
2022-08-17T15:59:54.655Z,33.52
2022-08-17T16:03:15.178Z,33.55
2022-08-17T16:05:22.043Z,33.56
2022-08-17T16:07:51.902Z,33.56
2022-08-17T16:10:19.441Z,33.55
2022-08-17T16:12:48.132Z,33.55
2022-08-17T16:15:15.499Z,33.54
2022-08-17T16:17:42.332Z,33.55
2022-08-17T16:20:20.902Z,33.54
2022-08-17T16:22:49.876Z,33.52
2022-08-17T16:25:49.714Z,33.42
2022-08-17T16:28:10.254Z,33.34
2022-08-17T16:30:38.248Z,33.22
2022-08-17T16:33:05.236Z,33.12
2022-08-17T16:35:31.835Z,33.04
2022-08-17T16:37:58.764Z,32.98
2022-08-17T16:40:27.944Z,32.93
2022-08-17T16:42:55.475Z,32.90
2022-08-17T16:45:36.297Z,32.86
2022-08-17T16:48:02.980Z,32.84
2022-08-17T16:50:29.598Z,32.81
2022-08-17T16:53:10.741Z,32.74
2022-08-17T16:55:38.052Z,32.75
2022-08-17T16:58:05.859Z,32.75
2022-08-17T17:00:33.594Z,32.73
2022-08-17T17:03:22.373Z,32.65
2022-08-17T17:06:01.471Z,32.64
2022-08-17T17:08:35.095Z,32.60
2022-08-17T17:11:15.613Z,32.50
2022-08-17T17:14:02.126Z,32.43
2022-08-17T17:16:28.583Z,32.43
2022-08-17T17:19:17.876Z,32.34
2022-08-17T17:22:25.144Z,32.31
2022-08-17T17:25:20.032Z,32.27
2022-08-17T17:28:01.817Z,32.29
2022-08-17T17:30:39.819Z,32.26
2022-08-17T17:33:10.824Z,32.23
2022-08-17T17:35:50.982Z,32.17
2022-08-17T17:38:40.415Z,32.07
2022-08-17T17:41:16.882Z,32.02
2022-08-17T17:43:43.423Z,31.96
2022-08-17T17:46:33.811Z,31.84
2022-08-17T17:49:00.918Z,31.81
2022-08-17T17:52:07.197Z,31.69
2022-08-17T17:55:04.391Z,31.65
2022-08-17T17:57:55.820Z,31.58
2022-08-17T18:00:26.249Z,31.56
2022-08-17T18:03:01.931Z,31.48
2022-08-17T18:06:06.848Z,31.41
2022-08-17T18:08:36.177Z,31.42
2022-08-17T18:11:24.038Z,31.37
2022-08-17T18:13:57.685Z,31.33
2022-08-17T18:16:27.360Z,31.28
2022-08-17T18:18:57.639Z,31.25
2022-08-17T18:21:34.858Z,31.18
2022-08-17T18:24:04.032Z,31.15
2022-08-17T18:26:33.498Z,31.08
2022-08-17T18:29:01.430Z,31.04
2022-08-17T18:31:28.187Z,31.00
2022-08-17T18:34:46.067Z,30.91
2022-08-17T18:37:08.558Z,30.90
2022-08-17T18:39:37.207Z,30.84
2022-08-17T18:42:07.653Z,30.80
2022-08-17T18:44:39.692Z,30.74
2022-08-17T18:47:25.458Z,30.65
2022-08-17T18:50:19.375Z,30.63
2022-08-17T18:52:48.408Z,30.60
2022-08-17T18:55:20.999Z,30.54
2022-08-17T18:57:56.705Z,30.50
2022-08-17T19:00:40.570Z,30.43
2022-08-17T19:03:16.177Z,30.39
2022-08-17T19:06:13.737Z,30.35
2022-08-17T19:08:40.619Z,30.37
2022-08-17T19:11:15.676Z,30.33
2022-08-17T19:14:00.934Z,30.26
2022-08-17T19:16:52.888Z,30.24
2022-08-17T19:19:30.845Z,30.21
2022-08-17T19:22:06.867Z,30.23
2022-08-17T19:24:35.151Z,30.21
2022-08-17T19:27:16.208Z,30.18
2022-08-17T19:30:08.048Z,30.11
2022-08-17T19:32:35.779Z,30.14
2022-08-17T19:35:05.867Z,30.09
2022-08-17T19:37:42.204Z,30.04
2022-08-17T19:40:24.438Z,30.02
2022-08-17T19:43:41.489Z,29.96
2022-08-17T19:46:26.348Z,29.95
2022-08-17T19:48:52.876Z,29.95
2022-08-17T19:51:40.553Z,29.86
2022-08-17T19:54:37.974Z,29.79
2022-08-17T19:57:27.269Z,29.75
2022-08-17T20:00:02.950Z,29.74
2022-08-17T20:03:05.871Z,29.64
2022-08-17T20:06:08.534Z,29.62
2022-08-17T20:08:29.208Z,29.59
2022-08-17T20:11:00.650Z,29.56
2022-08-17T20:13:39.593Z,29.50
2022-08-17T20:16:06.622Z,29.51
2022-08-17T20:18:51.615Z,29.43
2022-08-17T20:21:25.516Z,29.42
2022-08-17T20:23:54.354Z,29.40
2022-08-17T20:26:55.539Z,29.35
2022-08-17T20:29:40.006Z,29.33
2022-08-17T20:32:23.497Z,29.27
2022-08-17T20:35:03.806Z,29.24
2022-08-17T20:37:34.315Z,29.22
2022-08-17T20:40:00.927Z,29.19
2022-08-17T20:42:30.974Z,29.12
2022-08-17T20:45:02.807Z,29.08
2022-08-17T20:47:35.438Z,29.01
2022-08-17T20:50:14.965Z,28.96
2022-08-17T20:52:50.844Z,28.91
2022-08-17T20:55:51.365Z,28.82
2022-08-17T20:58:24.338Z,28.80
2022-08-17T21:00:57.122Z,28.80
2022-08-17T21:03:23.794Z,28.77
2022-08-17T21:06:00.242Z,28.71
2022-08-17T21:08:53.187Z,28.69
2022-08-17T21:12:02.364Z,28.68
2022-08-17T21:14:23.791Z,28.71
2022-08-17T21:17:29.578Z,28.67
2022-08-17T21:20:13.302Z,28.66
2022-08-17T21:22:56.908Z,28.64
2022-08-17T21:25:41.296Z,28.61
2022-08-17T21:28:21.799Z,28.60
2022-08-17T21:31:02.466Z,28.53
2022-08-17T21:33:32.169Z,28.49
2022-08-17T21:36:15.126Z,28.40
2022-08-17T21:38:48.750Z,28.35
2022-08-17T21:41:22.112Z,28.31
2022-08-17T21:43:51.360Z,28.27
2022-08-17T21:46:28.819Z,28.22
2022-08-17T21:49:02.180Z,28.22
2022-08-17T21:51:30.839Z,28.18
2022-08-17T21:54:01.259Z,28.14
2022-08-17T21:56:32.955Z,28.11
2022-08-17T21:59:04.286Z,28.09
2022-08-17T22:01:35.095Z,28.07
2022-08-17T22:04:11.561Z,28.04
2022-08-17T22:06:43.110Z,28.05
2022-08-17T22:09:32.031Z,28.01
2022-08-17T22:12:11.316Z,27.97
2022-08-17T22:14:55.966Z,27.97
2022-08-17T22:17:34.370Z,27.92
2022-08-17T22:20:14.222Z,27.93
2022-08-17T22:23:05.109Z,27.91
2022-08-17T22:25:36.161Z,27.89
2022-08-17T22:28:09.084Z,27.82
2022-08-17T22:30:40.176Z,27.79
2022-08-17T22:33:45.777Z,27.74
2022-08-17T22:36:37.272Z,27.68
2022-08-17T22:39:07.438Z,27.67
2022-08-17T22:41:55.823Z,27.61
2022-08-17T22:44:29.452Z,27.61
2022-08-17T22:47:11.327Z,27.59
2022-08-17T22:49:54.085Z,27.58
2022-08-17T22:53:02.361Z,27.53
2022-08-17T22:55:51.680Z,27.53
2022-08-17T22:58:42.233Z,27.48
2022-08-17T23:01:32.623Z,27.43
2022-08-17T23:04:08.467Z,27.42
2022-08-17T23:06:37.999Z,27.39
2022-08-17T23:09:06.823Z,27.34
2022-08-17T23:11:48.703Z,27.29
2022-08-17T23:14:19.181Z,27.29
2022-08-17T23:16:46.599Z,27.26
2022-08-17T23:19:16.729Z,27.23
2022-08-17T23:21:47.106Z,27.19
2022-08-17T23:24:21.660Z,27.12
2022-08-17T23:26:48.298Z,27.11
2022-08-17T23:29:14.929Z,27.08
2022-08-17T23:31:41.671Z,27.06
2022-08-17T23:34:13.985Z,27.00
2022-08-17T23:36:42.004Z,27.00
2022-08-17T23:39:08.554Z,26.97
2022-08-17T23:41:39.829Z,26.93
2022-08-17T23:44:07.256Z,26.90
2022-08-17T23:46:34.600Z,26.88
2022-08-17T23:49:01.371Z,26.85
2022-08-17T23:51:33.435Z,26.81
2022-08-17T23:54:11.614Z,26.79
2022-08-17T23:56:47.136Z,26.79
2022-08-17T23:59:16.255Z,26.76
